Time;durP1;ratioP1;P1;durP2;ratioP2;P2;SDS_P1;SDS_P2;PMS_P1;PMS_P2;Temp;Humidity;BMP_temperature;BMP_pressure;BME280_temperature;BME280_humidity;BME280_pressure;Samples;Min_cycle;Max_cycle;Signal;HPM_P1;HPM_P2
2021/08/21 00:00:47;;;;;;;;;2.00;2.00;;;;;18.44;61.13;100943.41;5017574;28;45217;-61
2021/08/21 00:03:13;;;;;;;;;3.50;2.75;;;;;18.41;61.16;100949.94;5016213;28;68307;-60
2021/08/21 00:05:39;;;;;;;;;1.50;1.50;;;;;18.39;61.27;100951.94;5015798;28;68322;-60
2021/08/21 00:08:04;;;;;;;;;2.00;2.00;;;;;18.37;61.17;100959.28;5016381;28;73135;-60
2021/08/21 00:10:30;;;;;;;;;5.25;3.50;;;;;18.33;61.29;100952.66;5017353;28;45511;-59
2021/08/21 00:12:56;;;;;;;;;5.00;2.00;;;;;18.31;61.15;100959.97;5017173;28;45412;-59
2021/08/21 00:15:21;;;;;;;;;3.00;3.00;;;;;18.28;60.90;100961.16;5016295;28;70616;-61
2021/08/21 00:17:47;;;;;;;;;3.00;3.00;;;;;18.26;61.19;100957.03;5017200;28;46062;-61
2021/08/21 00:20:12;;;;;;;;;3.00;3.00;;;;;18.21;61.11;100950.41;5017194;28;45398;-62
2021/08/21 00:22:38;;;;;;;;;3.00;3.00;;;;;18.19;60.93;100949.75;5016528;28;63012;-62
2021/08/21 00:25:04;;;;;;;;;3.50;3.00;;;;;18.18;61.48;100950.75;5017223;28;45320;-62
2021/08/21 00:27:29;;;;;;;;;2.00;2.00;;;;;18.18;61.37;100953.41;5016988;28;46553;-62
2021/08/21 00:29:54;;;;;;;;;3.25;3.00;;;;;18.17;61.70;100940.31;5016202;28;69095;-60
2021/08/21 00:32:20;;;;;;;;;2.50;2.50;;;;;18.16;61.33;100938.66;5017157;28;45799;-62
2021/08/21 00:34:45;;;;;;;;;2.50;2.50;;;;;18.15;61.49;100944.97;5016071;28;69029;-61
2021/08/21 00:37:10;;;;;;;;;3.75;3.00;;;;;18.12;61.28;100935.50;5015910;28;75550;-62
2021/08/21 00:39:36;;;;;;;;;2.00;2.00;;;;;18.11;61.57;100941.00;5015882;28;73826;-61
2021/08/21 00:42:02;;;;;;;;;3.00;3.00;;;;;18.08;61.71;100934.19;5017003;28;45264;-62
2021/08/21 00:44:27;;;;;;;;;3.50;3.00;;;;;18.05;61.72;100937.19;5017049;28;45347;-62
2021/08/21 00:47:11;;;;;;;;;2.75;2.25;;;;;18.03;61.75;100928.56;5015937;28;70391;-62
2021/08/21 00:49:38;;;;;;;;;2.50;2.50;;;;;18.00;61.42;100923.63;5015420;28;45716;-61
2021/08/21 00:52:04;;;;;;;;;3.50;3.00;;;;;18.00;61.57;100920.97;5016954;28;45230;-62
2021/08/21 00:54:29;;;;;;;;;2.00;2.00;;;;;17.99;61.73;100920.13;5016817;28;45443;-61
2021/08/21 00:56:56;;;;;;;;;3.50;2.00;;;;;17.99;61.99;100921.94;5015589;28;71878;-61
2021/08/21 00:59:21;;;;;;;;;2.50;2.50;;;;;17.96;62.07;100917.78;5016808;28;45339;-61
2021/08/21 01:01:48;;;;;;;;;2.00;2.00;;;;;17.92;62.22;100919.97;5015740;28;68607;-60
2021/08/21 01:04:13;;;;;;;;;3.00;2.00;;;;;17.89;62.18;100920.34;5016433;28;45427;-61
2021/08/21 01:06:39;;;;;;;;;3.00;3.00;;;;;17.86;62.24;100915.38;5015416;28;75468;-61
2021/08/21 01:09:04;;;;;;;;;2.75;2.75;;;;;17.85;62.11;100918.19;5015551;28;69110;-61
2021/08/21 01:11:30;;;;;;;;;3.00;2.50;;;;;17.85;62.57;100918.19;5016520;28;45436;-61
2021/08/21 01:13:55;;;;;;;;;4.00;4.00;;;;;17.81;62.37;100920.38;5015169;28;45566;-60
2021/08/21 01:16:21;;;;;;;;;2.50;2.50;;;;;17.76;62.30;100912.91;5016278;28;45447;-61
2021/08/21 01:18:47;;;;;;;;;4.00;3.00;;;;;17.74;62.31;100912.28;5015164;28;45290;-61
2021/08/21 01:21:12;;;;;;;;;2.75;2.75;;;;;17.73;61.92;100912.44;5016393;28;45227;-61
2021/08/21 01:23:38;;;;;;;;;3.00;3.00;;;;;17.69;61.80;100913.78;5015924;28;49373;-61
2021/08/21 01:26:03;;;;;;;;;3.00;3.00;;;;;17.65;61.61;100911.47;5015424;28;70790;-61
2021/08/21 01:28:28;;;;;;;;;4.50;3.25;;;;;17.63;61.76;100908.16;5015473;28;67355;-61
2021/08/21 01:30:54;;;;;;;;;3.00;3.00;;;;;17.63;61.94;100908.16;5014269;28;64872;-61
2021/08/21 01:33:19;;;;;;;;;3.50;2.75;;;;;17.65;62.05;100908.81;5015449;28;68696;-60
2021/08/21 01:35:45;;;;;;;;;3.00;2.75;;;;;17.67;62.43;100907.81;5015993;28;46326;-60
2021/08/21 01:38:10;;;;;;;;;3.50;3.00;;;;;17.67;62.74;100910.47;5015513;28;64408;-61
2021/08/21 01:40:36;;;;;;;;;1.75;1.75;;;;;17.65;62.70;100903.50;5015419;28;64943;-61
2021/08/21 01:43:01;;;;;;;;;3.00;3.00;;;;;17.64;62.55;100901.84;5014957;28;68745;-61
2021/08/21 01:45:26;;;;;;;;;4.00;2.00;;;;;17.63;62.64;100905.50;5015208;28;69318;-61
2021/08/21 01:47:52;;;;;;;;;3.25;3.00;;;;;17.63;62.65;100902.03;5015089;28;64826;-61
2021/08/21 01:50:18;;;;;;;;;3.00;3.00;;;;;17.62;62.82;100905.69;5015263;28;67439;-61
2021/08/21 01:52:53;;;;;;;;;5.00;4.50;;;;;17.60;63.00;100911.16;5016220;28;45563;-61
2021/08/21 01:55:21;;;;;;;;;5.75;4.75;;;;;17.58;62.67;100902.53;5015846;28;46123;-62
2021/08/21 01:57:47;;;;;;;;;3.25;3.00;;;;;17.59;62.67;100906.84;5015788;28;45757;-61
2021/08/21 02:00:12;;;;;;;;;3.00;2.00;;;;;17.57;62.25;100900.88;5016005;28;45221;-60
2021/08/21 02:02:38;;;;;;;;;4.00;3.00;;;;;17.57;62.26;100897.41;5015519;28;45305;-61
2021/08/21 02:05:04;;;;;;;;;4.00;4.00;;;;;17.56;62.15;100903.72;5014857;28;73692;-61
2021/08/21 02:07:30;;;;;;;;;2.25;2.25;;;;;17.55;62.40;100894.09;5015952;28;45941;-61
2021/08/21 02:09:56;;;;;;;;;3.75;2.25;;;;;17.55;62.44;100900.22;5015884;28;45435;-59
2021/08/21 02:12:21;;;;;;;;;4.00;3.00;;;;;17.55;62.75;100886.94;5015688;28;47991;-60
2021/08/21 02:14:47;;;;;;;;;4.25;3.50;;;;;17.57;62.43;100894.75;5014916;28;69252;-61
2021/08/21 02:17:12;;;;;;;;;4.00;4.00;;;;;17.58;62.88;100886.59;5014336;28;45424;-61
2021/08/21 02:19:37;;;;;;;;;3.50;2.25;;;;;17.58;62.52;100883.94;5015693;28;45220;-60
2021/08/21 02:22:04;;;;;;;;;3.25;3.00;;;;;17.61;62.75;100880.13;5015320;28;45827;-62
2021/08/21 02:24:29;;;;;;;;;4.00;4.00;;;;;17.62;63.04;100887.91;5015632;28;45893;-60
2021/08/21 02:26:58;;;;;;;;;3.50;2.00;;;;;17.64;63.24;100880.59;5015530;28;45296;-61
2021/08/21 02:29:23;;;;;;;;;3.50;3.00;;;;;17.65;63.07;100879.59;5016667;28;45444;-61
2021/08/21 02:31:48;;;;;;;;;4.75;3.00;;;;;17.68;63.16;100880.25;5018705;28;51345;-60
2021/08/21 02:34:14;;;;;;;;;4.75;2.75;;;;;17.67;63.00;100874.13;5018792;28;46326;-60
2021/08/21 02:36:40;;;;;;;;;3.00;3.00;;;;;17.68;63.23;100872.25;5018876;28;45305;-61
2021/08/21 02:39:05;;;;;;;;;4.75;3.00;;;;;17.68;63.25;100877.59;5017974;28;45433;-61
2021/08/21 02:41:31;;;;;;;;;4.00;3.00;;;;;17.68;63.39;100875.78;5017959;28;68139;-61
2021/08/21 02:43:56;;;;;;;;;3.00;3.00;;;;;17.67;63.40;100878.59;5017647;28;72667;-61
2021/08/21 02:46:22;;;;;;;;;4.50;4.00;;;;;17.67;63.50;100874.13;5018691;28;45328;-61
2021/08/21 02:48:47;;;;;;;;;3.50;3.00;;;;;17.67;63.58;100867.94;5018878;28;45285;-60
2021/08/21 02:51:13;;;;;;;;;3.25;3.25;;;;;17.68;63.39;100874.94;5017450;28;45676;-60
2021/08/21 02:53:38;;;;;;;;;4.00;4.00;;;;;17.68;63.49;100866.94;5018549;28;45312;-61
2021/08/21 02:56:04;;;;;;;;;5.00;3.00;;;;;17.69;63.48;100872.09;5017470;28;73264;-61
2021/08/21 02:58:29;;;;;;;;;3.00;3.00;;;;;17.68;63.40;100865.13;5018473;28;45197;-61
2021/08/21 03:00:54;;;;;;;;;6.00;4.00;;;;;17.68;63.59;100874.94;5017809;28;66155;-61
2021/08/21 03:03:20;;;;;;;;;3.00;3.00;;;;;17.67;63.63;100874.13;5017734;28;59951;-61
2021/08/21 03:05:45;;;;;;;;;3.75;3.25;;;;;17.67;63.32;100865.28;5018432;28;45179;-61
2021/08/21 03:08:10;;;;;;;;;4.50;2.75;;;;;17.68;63.25;100866.94;5017479;28;68883;-61
2021/08/21 03:10:36;;;;;;;;;3.50;3.50;;;;;17.66;63.23;100861.81;5018430;28;45494;-61
2021/08/21 03:13:02;;;;;;;;;5.00;3.00;;;;;17.68;63.72;100865.13;5018051;28;45229;-61
2021/08/21 03:15:28;;;;;;;;;2.00;2.00;;;;;17.69;63.79;100863.28;5018138;28;45391;-61
2021/08/21 03:17:54;;;;;;;;;4.00;4.00;;;;;17.70;63.70;100862.28;5018381;28;45352;-61
2021/08/21 03:20:19;;;;;;;;;3.00;3.00;;;;;17.66;63.51;100856.50;5018323;28;45345;-61
2021/08/21 03:22:45;;;;;;;;;7.25;4.00;;;;;17.68;63.37;100858.97;5016932;28;74823;-61
2021/08/21 03:25:10;;;;;;;;;5.00;5.00;;;;;17.65;63.47;100860.16;5018122;28;45463;-60
2021/08/21 03:27:35;;;;;;;;;2.25;2.25;;;;;17.64;63.63;100855.84;5017180;28;68307;-61
2021/08/21 03:30:01;;;;;;;;;3.00;3.00;;;;;17.64;63.54;100847.88;5018204;28;45571;-61
2021/08/21 03:32:27;;;;;;;;;4.00;4.00;;;;;17.63;63.54;100852.34;5017968;28;45370;-60
2021/08/21 03:34:53;;;;;;;;;4.00;3.00;;;;;17.63;63.51;100860.31;5018060;28;45293;-61
2021/08/21 03:37:19;;;;;;;;;3.75;3.75;;;;;17.62;63.63;100861.34;5018175;28;45445;-62
2021/08/21 03:39:44;;;;;;;;;3.25;3.25;;;;;17.62;63.64;100860.53;5016765;28;64541;-61
2021/08/21 03:42:09;;;;;;;;;6.00;4.25;;;;;17.60;63.45;100858.03;5016831;28;45350;-61
2021/08/21 03:44:35;;;;;;;;;4.75;4.00;;;;;17.60;63.57;100852.72;5017688;28;45272;-61
2021/08/21 03:47:00;;;;;;;;;3.75;3.00;;;;;17.60;63.66;100850.06;5017878;28;45367;-61
2021/08/21 03:49:26;;;;;;;;;4.25;3.00;;;;;17.60;63.47;100858.03;5016767;28;67069;-61
2021/08/21 03:51:51;;;;;;;;;4.00;4.00;;;;;17.58;63.93;100852.06;5016738;28;71329;-62
2021/08/21 03:54:16;;;;;;;;;4.00;4.00;;;;;17.56;63.67;100853.25;5017675;28;45221;-60
2021/08/21 03:56:42;;;;;;;;;3.75;3.75;;;;;17.55;63.66;100849.75;5016925;28;62965;-60
2021/08/21 03:59:07;;;;;;;;;4.00;4.00;;;;;17.52;63.67;100844.78;5017659;28;45526;-60
2021/08/21 04:01:33;;;;;;;;;5.25;3.75;;;;;17.51;63.84;100843.13;5017427;28;45211;-60
2021/08/21 04:03:58;;;;;;;;;5.25;4.00;;;;;17.49;63.73;100845.97;5016328;28;66955;-59
2021/08/21 04:06:23;;;;;;;;;4.25;4.25;;;;;17.47;63.76;100841.84;5016953;28;60606;-61
2021/08/21 04:08:49;;;;;;;;;5.00;4.25;;;;;17.44;63.82;100834.22;5017596;28;45601;-61
2021/08/21 04:11:14;;;;;;;;;3.00;3.00;;;;;17.41;64.11;100831.91;5016513;28;71739;-60
2021/08/21 04:13:39;;;;;;;;;5.50;5.25;;;;;17.37;64.02;100834.06;5016461;28;70162;-59
2021/08/21 04:16:05;;;;;;;;;5.50;4.00;;;;;17.34;64.06;100827.28;5017392;28;45404;-61
2021/08/21 04:18:30;;;;;;;;;4.00;4.00;;;;;17.35;64.00;100830.75;5016585;28;64778;-61
2021/08/21 04:20:55;;;;;;;;;3.50;3.50;;;;;17.33;64.04;100835.41;5016614;28;64490;-59
2021/08/21 04:23:21;;;;;;;;;5.00;4.00;;;;;17.30;64.21;100830.44;5016083;28;72303;-60
2021/08/21 04:25:46;;;;;;;;;4.75;4.00;;;;;17.27;63.88;100836.09;5017046;28;48479;-60
2021/08/21 04:28:12;;;;;;;;;6.75;4.00;;;;;17.25;63.77;100835.44;5016267;28;70453;-61
2021/08/21 04:30:37;;;;;;;;;5.50;4.00;;;;;17.20;63.59;100833.31;5016956;28;45473;-60
2021/08/21 04:33:03;;;;;;;;;3.00;3.00;;;;;17.17;63.77;100825.69;5016838;28;46860;-60
2021/08/21 04:35:28;;;;;;;;;4.50;4.50;;;;;17.13;63.25;100829.69;5016244;28;64375;-61
2021/08/21 04:37:53;;;;;;;;;7.00;5.00;;;;;17.11;63.67;100821.06;5017039;28;45309;-61
2021/08/21 04:40:20;;;;;;;;;4.50;3.00;;;;;17.11;63.94;100824.56;5016883;28;45391;-61
2021/08/21 04:42:46;;;;;;;;;4.50;4.50;;;;;17.10;64.22;100822.06;5016588;28;45395;-61
2021/08/21 04:45:11;;;;;;;;;5.00;4.75;;;;;17.06;63.75;100816.28;5016188;28;63314;-61
2021/08/21 04:47:37;;;;;;;;;4.50;4.00;;;;;17.03;63.94;100820.09;5016785;28;45506;-61
2021/08/21 04:50:03;;;;;;;;;4.25;4.25;;;;;17.01;63.90;100815.97;5015870;28;70264;-61
2021/08/21 04:52:29;;;;;;;;;4.00;4.00;;;;;16.99;64.10;100821.44;5015137;28;45371;-61
2021/08/21 04:54:54;;;;;;;;;3.25;3.00;;;;;16.98;63.88;100819.78;5017011;28;45221;-60
2021/08/21 04:57:19;;;;;;;;;5.00;3.75;;;;;16.96;63.98;100815.63;5016645;28;45320;-60
2021/08/21 04:59:45;;;;;;;;;6.50;5.25;;;;;16.94;63.94;100821.13;5016557;28;46155;-61
2021/08/21 05:02:10;;;;;;;;;4.00;4.00;;;;;16.93;63.69;100819.47;5016315;28;50949;-61
2021/08/21 05:04:36;;;;;;;;;6.25;6.25;;;;;16.91;63.82;100821.47;5016363;28;45861;-61
2021/08/21 05:07:01;;;;;;;;;5.75;4.00;;;;;16.91;63.49;100827.59;5015786;28;64985;-60
2021/08/21 05:09:26;;;;;;;;;4.75;4.75;;;;;16.89;63.58;100823.47;5015834;28;58048;-61
2021/08/21 05:11:52;;;;;;;;;7.00;6.00;;;;;16.86;63.63;100829.09;5016273;28;45447;-61
2021/08/21 05:14:17;;;;;;;;;4.00;4.00;;;;;16.85;63.78;100827.44;5016635;28;45247;-61
2021/08/21 05:16:46;;;;;;;;;6.75;4.25;;;;;16.84;63.76;100821.31;5015489;28;64206;-61
2021/08/21 05:19:23;;;;;;;;;4.00;4.00;;;;;16.85;63.57;100824.81;5015034;28;47125;-61
2021/08/21 05:21:51;;;;;;;;;4.25;4.25;;;;;16.88;63.86;100827.94;5015047;28;45803;-61
2021/08/21 05:24:17;;;;;;;;;4.00;4.00;;;;;16.90;64.15;100827.78;5016432;28;45399;-61
2021/08/21 05:26:42;;;;;;;;;5.00;5.00;;;;;16.92;64.15;100823.94;5016246;28;46083;-60
2021/08/21 05:29:08;;;;;;;;;4.75;4.25;;;;;16.94;64.15;100842.38;5014491;28;45501;-60
2021/08/21 05:31:33;;;;;;;;;5.75;4.00;;;;;16.92;63.80;100837.22;5015281;28;70608;-60
2021/08/21 05:33:58;;;;;;;;;4.00;4.00;;;;;16.94;63.98;100845.00;5030779;28;61043;-62
2021/08/21 05:36:24;;;;;;;;;6.75;5.50;;;;;16.95;63.67;100837.88;5016173;28;45525;-61
2021/08/21 05:38:49;;;;;;;;;7.75;6.50;;;;;16.95;63.66;100838.72;5016008;28;45295;-61
2021/08/21 05:41:15;;;;;;;;;4.00;4.00;;;;;16.97;63.68;100842.03;5015018;28;73187;-61
2021/08/21 05:43:40;;;;;;;;;4.00;4.00;;;;;16.99;63.75;100839.22;5015255;28;64234;-60
2021/08/21 05:46:05;;;;;;;;;3.75;3.75;;;;;17.04;63.94;100844.84;5015577;28;57990;-60
2021/08/21 05:48:31;;;;;;;;;5.75;5.00;;;;;17.09;63.96;100844.31;5015120;28;69671;-61
2021/08/21 05:50:56;;;;;;;;;7.00;6.00;;;;;17.16;64.19;100847.94;5015335;28;63638;-61
2021/08/21 05:53:21;;;;;;;;;7.25;6.00;;;;;17.22;64.28;100844.59;5015153;28;67037;-61
2021/08/21 05:55:47;;;;;;;;;5.25;4.75;;;;;17.28;64.19;100846.56;5016081;28;45567;-61
2021/08/21 05:58:12;;;;;;;;;5.00;4.00;;;;;17.33;64.18;100854.84;5015013;28;65214;-60
2021/08/21 06:00:37;;;;;;;;;4.75;4.75;;;;;17.39;64.07;100855.16;5014839;28;69992;-61
2021/08/21 06:03:03;;;;;;;;;6.00;4.75;;;;;17.45;64.02;100859.78;5014654;28;63412;-60
2021/08/21 06:05:28;;;;;;;;;6.00;6.00;;;;;17.51;63.96;100859.06;5018811;28;45150;-60
2021/08/21 06:07:54;;;;;;;;;4.50;2.00;;;;;17.59;64.17;100860.88;5018064;28;75246;-60
2021/08/21 06:10:19;;;;;;;;;4.00;4.00;;;;;17.65;64.46;100863.66;5018334;28;70223;-60
2021/08/21 06:12:47;;;;;;;;;5.75;5.00;;;;;17.73;64.23;100861.94;5018288;28;66392;-62
2021/08/21 06:15:12;;;;;;;;;5.50;5.50;;;;;17.81;63.93;100864.56;5018984;28;45451;-60
2021/08/21 06:17:37;;;;;;;;;5.75;4.00;;;;;17.89;63.83;100868.97;5018053;28;74101;-61
2021/08/21 06:20:04;;;;;;;;;3.00;3.00;;;;;17.98;63.62;100864.47;5018338;28;66380;-60
2021/08/21 06:22:29;;;;;;;;;6.75;6.00;;;;;18.07;63.93;100863.41;5019099;28;45443;-60
2021/08/21 06:24:55;;;;;;;;;7.00;7.00;;;;;18.16;63.60;100862.34;5018340;28;62912;-60
2021/08/21 06:27:20;;;;;;;;;9.00;8.00;;;;;18.26;63.36;100853.28;5018627;28;46007;-61
2021/08/21 06:29:46;;;;;;;;;8.50;7.00;;;;;18.37;63.34;100858.19;5018948;28;45391;-59
2021/08/21 06:32:11;;;;;;;;;7.50;6.00;;;;;18.48;62.54;100859.59;5018708;28;50712;-60
2021/08/21 06:34:36;;;;;;;;;7.50;5.50;;;;;18.59;62.68;100860.97;5019073;28;45446;-61
2021/08/21 06:37:02;;;;;;;;;8.00;6.50;;;;;18.69;62.31;100853.56;5018935;28;45375;-61
2021/08/21 06:39:28;;;;;;;;;9.50;8.00;;;;;18.79;61.62;100859.44;5018299;28;45343;-60
2021/08/21 06:41:53;;;;;;;;;6.00;5.50;;;;;18.90;62.12;100852.00;5018767;28;45865;-60
2021/08/21 06:44:19;;;;;;;;;8.00;6.50;;;;;18.99;61.64;100856.28;5017729;28;64060;-61
2021/08/21 06:46:44;;;;;;;;;8.00;6.00;;;;;19.08;61.34;100849.00;5018573;28;45947;-60
2021/08/21 06:49:09;;;;;;;;;7.25;6.25;;;;;19.17;60.88;100847.91;5018452;28;45336;-60
2021/08/21 06:51:35;;;;;;;;;7.00;7.00;;;;;19.26;60.54;100845.94;5017923;28;59862;-59
2021/08/21 06:54:00;;;;;;;;;7.75;7.75;;;;;19.35;60.63;100847.50;5017744;28;65148;-62
2021/08/21 06:56:25;;;;;;;;;8.00;8.00;;;;;19.45;60.30;100843.72;5017446;28;72087;-61
2021/08/21 06:58:51;;;;;;;;;9.25;9.25;;;;;19.54;59.92;100843.41;5017608;28;68636;-60
2021/08/21 07:01:16;;;;;;;;;9.75;9.50;;;;;19.63;59.45;100836.13;5017708;28;62881;-61
2021/08/21 07:03:41;;;;;;;;;12.75;10.75;;;;;19.72;59.85;100835.00;5017201;28;64568;-61
2021/08/21 07:06:07;;;;;;;;;10.00;8.75;;;;;19.80;59.26;100835.88;5018264;28;45372;-61
2021/08/21 07:08:32;;;;;;;;;9.25;9.00;;;;;19.89;59.26;100845.44;5018188;28;45304;-61
2021/08/21 07:10:58;;;;;;;;;7.50;7.00;;;;;19.98;58.95;100841.66;5017422;28;66099;-60
2021/08/21 07:13:26;;;;;;;;;7.00;7.00;;;;;20.09;58.86;100828.81;5017430;28;68854;-61
2021/08/21 07:15:51;;;;;;;;;7.25;6.50;;;;;20.21;58.67;100831.78;5017822;28;45245;-60
2021/08/21 07:18:16;;;;;;;;;5.75;5.00;;;;;20.31;58.43;100834.94;5018244;28;45260;-61
2021/08/21 07:20:42;;;;;;;;;7.50;7.00;;;;;20.41;57.81;100827.41;5017558;28;59998;-61
2021/08/21 07:23:07;;;;;;;;;6.25;5.75;;;;;20.53;57.88;100834.88;5017015;28;69747;-60
2021/08/21 07:25:33;;;;;;;;;7.50;6.75;;;;;20.63;57.93;100823.88;5017931;28;46092;-60
2021/08/21 07:27:59;;;;;;;;;6.25;6.00;;;;;20.73;57.32;100838.50;5018192;28;45375;-61
2021/08/21 07:30:24;;;;;;;;;6.00;6.00;;;;;20.86;57.53;100834.31;5018133;28;45416;-61
2021/08/21 07:32:49;;;;;;;;;8.00;8.00;;;;;20.97;56.82;100835.59;5018012;28;45451;-60
2021/08/21 07:35:15;;;;;;;;;7.25;6.25;;;;;21.08;57.24;100835.03;5017106;28;67504;-61
2021/08/21 07:37:40;;;;;;;;;8.25;6.75;;;;;21.21;57.14;100836.94;5016817;28;72208;-60
2021/08/21 07:40:06;;;;;;;;;6.75;6.00;;;;;21.33;56.86;100837.16;5017741;28;48638;-61
2021/08/21 07:42:31;;;;;;;;;7.00;7.00;;;;;21.44;56.41;100836.59;5017653;28;45541;-60
2021/08/21 07:44:57;;;;;;;;;8.00;7.00;;;;;21.56;56.16;100836.84;5017643;28;46006;-61
2021/08/21 07:47:22;;;;;;;;;8.00;6.25;;;;;21.70;56.07;100848.44;5016807;28;72207;-61
2021/08/21 07:49:48;;;;;;;;;7.00;6.00;;;;;21.84;55.23;100853.78;5016916;28;65233;-61
2021/08/21 07:52:13;;;;;;;;;6.00;5.25;;;;;21.95;55.05;100847.84;5017762;28;45313;-61
2021/08/21 07:54:38;;;;;;;;;5.50;5.50;;;;;22.08;55.07;100847.03;5016821;28;67402;-62
2021/08/21 07:57:04;;;;;;;;;7.00;7.00;;;;;22.20;54.22;100842.72;5017319;28;45365;-61
2021/08/21 07:59:29;;;;;;;;;7.00;6.75;;;;;22.30;54.46;100842.28;5017596;28;45474;-61
2021/08/21 08:01:54;;;;;;;;;6.00;6.00;;;;;22.38;53.90;100844.75;5016558;28;70567;-61
2021/08/21 08:04:20;;;;;;;;;6.75;6.50;;;;;22.46;53.88;100838.41;5016268;28;66322;-60
2021/08/21 08:06:45;;;;;;;;;10.00;6.25;;;;;22.53;54.26;100838.41;5017209;28;49547;-61
2021/08/21 08:09:11;;;;;;;;;8.50;6.50;;;;;22.64;53.41;100840.44;5017411;28;45172;-61
2021/08/21 08:11:36;;;;;;;;;6.75;6.75;;;;;22.79;53.36;100839.34;5016394;28;69972;-61
2021/08/21 08:14:01;;;;;;;;;6.00;6.00;;;;;22.93;53.24;100840.16;5016278;28;73709;-60
2021/08/21 08:16:27;;;;;;;;;6.00;5.00;;;;;23.07;53.01;100841.75;5017170;28;49659;-59
2021/08/21 08:18:52;;;;;;;;;6.25;5.00;;;;;23.22;52.97;100837.97;5017396;28;45292;-60
2021/08/21 08:21:19;;;;;;;;;7.75;7.00;;;;;23.35;52.66;100840.66;5017186;28;45427;-61
2021/08/21 08:23:45;;;;;;;;;7.00;6.00;;;;;23.50;52.54;100843.03;5017078;28;46005;-61
2021/08/21 08:26:11;;;;;;;;;6.25;5.25;;;;;23.62;51.93;100839.66;5016454;28;45426;-60
2021/08/21 08:28:36;;;;;;;;;5.00;5.00;;;;;23.67;52.16;100843.34;5016925;28;45458;-61
2021/08/21 08:31:02;;;;;;;;;5.75;3.50;;;;;23.76;52.15;100846.59;5016471;28;60167;-61
2021/08/21 08:33:27;;;;;;;;;9.00;7.25;;;;;23.86;51.65;100846.94;5015997;28;74554;-61
2021/08/21 08:35:52;;;;;;;;;6.00;6.00;;;;;23.95;51.65;100838.63;5017080;28;45479;-60
2021/08/21 08:38:18;;;;;;;;;5.75;4.00;;;;;24.09;51.88;100840.19;4999348;28;45376;-61
2021/08/21 08:40:45;;;;;;;;;6.00;5.25;;;;;24.21;51.59;100837.63;5017045;28;45704;-61
2021/08/21 08:43:11;;;;;;;;;7.50;7.50;;;;;24.35;50.90;100837.50;5015511;28;45454;-60
2021/08/21 08:45:36;;;;;;;;;5.75;5.75;;;;;24.46;50.32;100834.09;5016104;28;63704;-60
2021/08/21 08:48:02;;;;;;;;;5.50;5.50;;;;;24.57;50.20;100827.16;5016325;28;56953;-61
2021/08/21 08:50:27;;;;;;;;;4.50;4.50;;;;;24.67;49.66;100834.69;5016869;28;45232;-61
2021/08/21 08:52:53;;;;;;;;;6.50;6.50;;;;;24.76;49.19;100832.59;5016573;28;46296;-60
2021/08/21 08:55:18;;;;;;;;;6.00;6.00;;;;;24.82;49.31;100839.75;5015100;28;45266;-60
2021/08/21 08:57:44;;;;;;;;;6.75;6.00;;;;;24.88;49.19;100833.50;5016097;28;58375;-60
2021/08/21 09:00:14;;;;;;;;;10.75;6.00;;;;;24.95;48.50;100833.41;5016680;28;45269;-61
2021/08/21 09:02:47;;;;;;;;;8.00;7.00;;;;;25.00;48.59;100833.56;5016222;28;46240;-61
2021/08/21 09:05:13;;;;;;;;;7.00;7.00;;;;;25.04;48.54;100834.75;5016719;28;45323;-61
2021/08/21 09:07:41;;;;;;;;;6.00;6.00;;;;;25.08;48.25;100840.47;5016732;28;45346;-61
2021/08/21 09:10:25;;;;;;;;;7.00;7.00;;;;;25.13;48.29;100832.56;5016574;28;45208;-61
2021/08/21 09:13:04;;;;;;;;;6.00;6.00;;;;;25.21;48.72;100839.47;5016442;28;46178;-61
2021/08/21 09:15:30;;;;;;;;;5.50;5.25;;;;;25.32;49.10;100844.09;5015502;28;45918;-61
2021/08/21 09:18:07;;;;;;;;;6.00;6.00;;;;;25.47;48.23;100847.25;5016489;28;45358;-61
2021/08/21 09:20:50;;;;;;;;;7.75;6.00;;;;;25.59;47.63;100847.28;5013971;28;45383;-61
2021/08/21 09:23:15;;;;;;;;;5.75;5.75;;;;;25.72;47.50;100856.22;4997279;28;46933;-60
2021/08/21 09:25:40;;;;;;;;;8.25;7.00;;;;;25.87;47.59;100855.78;5015339;28;45396;-61
2021/08/21 09:28:22;;;;;;;;;6.25;6.00;;;;;26.05;47.13;100844.94;5015479;28;45624;-62
2021/08/21 09:30:48;;;;;;;;;8.75;7.25;;;;;26.17;46.73;100844.97;5016379;28;45444;-61
2021/08/21 09:33:18;;;;;;;;;10.00;7.75;;;;;26.30;46.64;100848.50;5014984;28;45916;-62
2021/08/21 09:35:44;;;;;;;;;6.50;6.25;;;;;26.45;46.63;100840.78;5015849;28;45968;-62
2021/08/21 09:38:10;;;;;;;;;7.75;5.25;;;;;26.65;46.12;100844.97;5017387;28;45403;-61
2021/08/21 09:40:37;;;;;;;;;9.00;7.25;;;;;26.83;45.29;100837.81;5018603;28;45298;-61
2021/08/21 09:43:05;;;;;;;;;6.75;6.25;;;;;26.94;45.02;100845.06;5019568;28;46286;-61
2021/08/21 09:45:35;;;;;;;;;7.00;7.00;;;;;27.05;44.94;100841.50;5019431;28;45296;-61
2021/08/21 09:48:04;;;;;;;;;6.00;6.00;;;;;27.15;44.44;100840.91;5019710;28;45182;-61
2021/08/21 09:50:37;;;;;;;;;7.00;6.50;;;;;27.23;44.32;100840.53;5019632;28;45558;-61
2021/08/21 09:53:05;;;;;;;;;5.25;5.25;;;;;27.34;44.36;100833.44;5019436;28;45222;-61
2021/08/21 09:55:31;;;;;;;;;6.25;6.00;;;;;27.47;43.70;100831.50;5018511;28;45815;-62
2021/08/21 09:58:00;;;;;;;;;6.00;6.00;;;;;27.57;44.12;100833.59;5018346;28;45323;-62
2021/08/21 10:00:28;;;;;;;;;8.00;8.00;;;;;27.68;44.26;100822.72;5019011;28;45471;-62
2021/08/21 10:02:55;;;;;;;;;7.00;7.00;;;;;27.79;43.18;100821.03;5018818;28;45378;-62
2021/08/21 10:05:21;;;;;;;;;8.25;7.25;;;;;27.83;42.81;100807.84;5018679;28;46031;-61
2021/08/21 10:07:50;;;;;;;;;7.00;5.50;;;;;27.91;42.74;100806.59;5019304;28;45443;-61
2021/08/21 10:10:16;;;;;;;;;6.25;6.25;;;;;28.00;43.33;100807.84;5017606;28;45549;-61
2021/08/21 10:12:46;;;;;;;;;7.00;7.00;;;;;28.12;43.30;100805.91;5018901;28;45291;-61
2021/08/21 10:15:14;;;;;;;;;6.50;6.50;;;;;28.26;42.92;100794.75;5017554;28;45365;-60
2021/08/21 10:17:40;;;;;;;;;5.50;5.50;;;;;28.38;42.20;100797.34;5019047;28;45258;-62
2021/08/21 10:20:06;;;;;;;;;17.25;12.75;;;;;28.46;42.15;100805.03;5001394;28;45241;-61
2021/08/21 10:22:31;;;;;;;;;8.50;8.50;;;;;28.51;41.70;100821.31;5017548;28;51518;-62
2021/08/21 10:25:04;;;;;;;;;6.25;5.25;;;;;28.54;41.50;100812.72;5017952;28;71496;-61
2021/08/21 10:27:32;;;;;;;;;6.25;6.25;;;;;28.60;42.02;100810.88;5018700;28;45381;-61
2021/08/21 10:30:08;;;;;;;;;6.50;6.50;;;;;28.69;42.08;100806.66;5018611;28;49376;-61
2021/08/21 10:32:35;;;;;;;;;9.50;7.00;;;;;28.80;41.76;100810.34;5018808;28;46134;-62
2021/08/21 10:35:01;;;;;;;;;6.00;5.25;;;;;28.87;41.04;100821.78;5018987;28;45920;-61
2021/08/21 10:37:43;;;;;;;;;5.00;5.00;;;;;28.87;40.56;100821.78;5018963;28;45364;-61
2021/08/21 10:40:26;;;;;;;;;10.50;8.75;;;;;28.84;41.02;100824.19;5018541;28;45234;-61
2021/08/21 10:42:58;;;;;;;;;9.00;8.00;;;;;28.80;40.97;100823.84;5018630;28;45496;-60
2021/08/21 10:45:51;;;;;;;;;6.00;5.50;;;;;28.75;41.71;100821.06;5018735;28;45783;-61
2021/08/21 10:48:22;;;;;;;;;5.75;5.75;;;;;28.74;41.66;100819.41;5016297;28;45301;-61
2021/08/21 10:50:49;;;;;;;;;15.50;13.75;;;;;28.77;41.51;100827.06;5018191;28;45472;-61
2021/08/21 10:53:21;;;;;;;;;6.50;6.50;;;;;28.82;41.35;100820.91;5018584;28;45939;-62
2021/08/21 10:55:47;;;;;;;;;11.50;9.00;;;;;28.83;41.13;100819.84;5017828;28;45780;-62
2021/08/21 10:58:17;;;;;;;;;6.75;6.00;;;;;28.85;41.04;100813.09;5018671;28;45245;-62
2021/08/21 11:00:44;;;;;;;;;6.00;6.00;;;;;28.83;41.14;100817.16;5018395;28;45614;-61
2021/08/21 11:03:25;;;;;;;;;10.50;8.50;;;;;28.82;40.84;100813.63;5018014;28;46021;-62
2021/08/21 11:05:50;;;;;;;;;6.25;6.00;;;;;28.84;41.28;100816.06;5018288;28;45413;-61
2021/08/21 11:08:15;;;;;;;;;4.75;4.75;;;;;28.90;40.10;100812.34;5018330;28;45432;-60
2021/08/21 11:10:41;;;;;;;;;5.25;5.25;;;;;28.96;41.00;100807.81;5017198;28;68914;-61
2021/08/21 11:13:09;;;;;;;;;8.00;7.75;;;;;29.00;40.89;100808.97;5018148;28;45464;-61
2021/08/21 11:15:34;;;;;;;;;6.75;6.75;;;;;29.03;41.25;100811.97;5017082;28;45444;-62
2021/08/21 11:17:59;;;;;;;;;6.75;6.00;;;;;29.07;40.64;100806.03;5016491;28;60882;-61
2021/08/21 11:20:25;;;;;;;;;8.00;6.00;;;;;29.05;39.71;100805.47;5016981;28;45402;-61